Time;durP1;ratioP1;P1;durP2;ratioP2;P2;SDS_P1;SDS_P2;PMS_P1;PMS_P2;Temp;Humidity;BMP_temperature;BMP_pressure;BME280_temperature;BME280_humidity;BME280_pressure;Samples;Min_cycle;Max_cycle;Signal;HPM_P1;HPM_P2
2022/05/21 00:00:47;;;;;;;4.30;1.92;;;;;;;9.55;36.89;99161.84;4855346;29;20144;-71
2022/05/21 00:03:14;;;;;;;4.32;2.10;;;;;;;9.52;37.70;99168.06;4863015;29;20569;-70
2022/05/21 00:05:41;;;;;;;5.10;2.17;;;;;;;9.53;37.57;99164.16;4863028;29;20069;-71
2022/05/21 00:08:09;;;;;;;6.32;1.95;;;;;;;9.49;37.91;99163.19;4862754;29;20233;-70
2022/05/21 00:10:38;;;;;;;6.93;2.78;;;;;;;9.48;38.05;99161.56;4865163;29;20091;-69
2022/05/21 00:13:05;;;;;;;5.82;2.03;;;;;;;9.49;37.91;99160.41;4881346;29;20049;-68
2022/05/21 00:15:34;;;;;;;6.22;1.27;;;;;;;9.52;37.77;99156.97;4881293;29;20083;-69
2022/05/21 00:18:02;;;;;;;7.20;2.40;;;;;;;9.58;36.52;99161.19;4880181;29;20057;-69
2022/05/21 00:20:47;;;;;;;3.65;1.80;;;;;;;9.61;37.21;99166.06;4880940;29;20057;-68
2022/05/21 00:23:25;;;;;;;4.38;2.20;;;;;;;9.62;37.38;99151.06;4881031;29;20049;-68
2022/05/21 00:26:03;;;;;;;3.88;1.88;;;;;;;9.64;37.59;99159.84;4881078;29;20076;-69
2022/05/21 00:28:31;;;;;;;4.60;1.90;;;;;;;9.66;37.37;99154.78;4881123;29;20064;-68
2022/05/21 00:30:58;;;;;;;8.85;2.00;;;;;;;9.68;36.95;99155.25;4880982;29;20057;-68
2022/05/21 00:33:27;;;;;;;11.52;2.05;;;;;;;9.68;36.70;99155.25;4881015;29;20560;-68
2022/05/21 00:35:54;;;;;;;7.72;1.55;;;;;;;9.68;36.95;99156.06;4880610;29;20139;-68
2022/05/21 00:38:21;;;;;;;3.08;1.63;;;;;;;9.69;36.58;99152.16;4881216;29;20059;-68
2022/05/21 00:40:50;;;;;;;4.43;2.03;;;;;;;9.70;36.69;99150.16;4880857;29;20412;-69
2022/05/21 00:43:35;;;;;;;5.55;1.80;;;;;;;9.70;36.95;99153.75;4880876;29;20527;-68
2022/05/21 00:46:04;;;;;;;3.42;1.77;;;;;;;9.71;37.03;99146.25;4880774;29;20086;-69
2022/05/21 00:48:31;;;;;;;4.00;1.90;;;;;;;9.70;37.29;99142.66;4880550;29;20544;-69
2022/05/21 00:50:58;;;;;;;3.47;1.58;;;;;;;9.69;36.76;99137.44;4879099;29;20065;-69
2022/05/21 00:53:28;;;;;;;3.65;1.70;;;;;;;9.70;37.00;99133.50;4880658;29;20143;-69
2022/05/21 00:55:56;;;;;;;8.45;2.38;;;;;;;9.68;36.39;99133.84;4880574;29;20421;-69
2022/05/21 01:01:14;;;;;;;6.95;1.77;;;;;;;9.66;36.49;99140.88;4880471;29;20387;-68
2022/05/21 01:03:43;;;;;;;3.70;1.70;;;;;;;9.65;36.80;99142.06;4880203;29;20076;-68
2022/05/21 01:06:11;;;;;;;5.85;2.13;;;;;;;9.67;36.46;99143.31;4879189;29;21010;-68
2022/05/21 01:08:39;;;;;;;4.68;1.95;;;;;;;9.65;37.01;99136.50;4880403;29;20095;-68
2022/05/21 01:11:11;;;;;;;3.72;1.75;;;;;;;9.65;36.88;99133.72;4880577;29;20056;-69
2022/05/21 01:13:40;;;;;;;6.57;2.25;;;;;;;9.60;37.48;99136.69;4880289;29;20084;-69
2022/05/21 01:16:09;;;;;;;5.18;1.77;;;;;;;9.58;37.43;99139.78;4880595;29;20057;-70
2022/05/21 01:18:37;;;;;;;8.75;1.73;;;;;;;9.55;37.99;99131.31;4880167;29;20071;-69
2022/05/21 01:21:04;;;;;;;4.90;1.90;;;;;;;9.51;37.69;99133.97;4879898;29;20060;-69
2022/05/21 01:23:31;;;;;;;7.38;2.22;;;;;;;9.54;38.13;99133.28;4879885;29;20420;-69
2022/05/21 01:26:01;;;;;;;3.30;1.80;;;;;;;9.54;38.29;99127.75;4880130;29;20234;-69
2022/05/21 01:28:32;;;;;;;7.80;2.97;;;;;;;9.43;38.29;99118.16;4880156;29;20145;-70
2022/05/21 01:31:01;;;;;;;3.25;1.63;;;;;;;9.41;38.56;99127.97;4879829;29;20103;-70
2022/05/21 01:33:32;;;;;;;3.22;1.63;;;;;;;9.35;38.48;99132.88;4879722;29;20524;-70
2022/05/21 01:35:59;;;;;;;5.28;1.73;;;;;;;9.31;39.01;99129.16;4880126;29;20064;-70
2022/05/21 01:38:29;;;;;;;3.60;1.73;;;;;;;9.30;38.97;99130.31;4879947;29;20132;-70
2022/05/21 01:40:57;;;;;;;8.90;3.83;;;;;;;9.29;39.11;99132.28;4880122;29;20108;-70
2022/05/21 01:46:15;;;;;;;4.78;1.90;;;;;;;9.27;39.08;99125.44;4879616;29;20530;-70
2022/05/21 01:48:43;;;;;;;3.95;1.90;;;;;;;9.32;39.95;99126.06;4879595;29;20108;-69
2022/05/21 01:51:11;;;;;;;4.45;1.83;;;;;;;9.39;39.19;99124.72;4879465;29;20080;-70
2022/05/21 01:53:39;;;;;;;3.40;2.03;;;;;;;9.47;38.93;99123.88;4879644;29;20055;-69
2022/05/21 01:56:09;;;;;;;6.93;2.22;;;;;;;9.58;38.37;99125.09;4879873;29;20148;-69
2022/05/21 01:58:36;;;;;;;12.95;2.08;;;;;;;9.62;38.04;99118.53;4879195;29;20136;-70
2022/05/21 02:01:04;;;;;;;2.92;1.50;;;;;;;9.68;38.50;99125.50;4879538;29;20420;-69
2022/05/21 02:03:31;;;;;;;4.75;2.22;;;;;;;9.71;38.58;99118.47;4879245;29;20049;-70
2022/05/21 02:05:58;;;;;;;3.35;1.80;;;;;;;9.71;37.66;99124.84;4879402;29;20517;-72
2022/05/21 02:08:25;;;;;;;4.20;1.92;;;;;;;9.74;37.78;99120.59;4879381;29;20075;-70
2022/05/21 02:10:53;;;;;;;5.30;1.73;;;;;;;9.78;37.78;99124.31;4879063;29;20112;-72
2022/05/21 02:13:22;;;;;;;3.95;1.88;;;;;;;9.81;37.51;99120.84;4879304;29;20088;-70
2022/05/21 02:15:49;;;;;;;3.63;1.80;;;;;;;9.80;37.58;99119.22;4879299;29;20053;-70
2022/05/21 02:18:17;;;;;;;3.50;1.85;;;;;;;9.80;37.88;99113.69;4879273;29;20099;-70
2022/05/21 02:20:47;;;;;;;5.80;2.22;;;;;;;9.82;37.87;99114.13;4878861;29;20136;-70
2022/05/21 02:23:15;;;;;;;11.88;2.47;;;;;;;9.80;37.31;99113.69;4860394;29;20049;-70
2022/05/21 02:25:44;;;;;;;5.97;2.50;;;;;;;9.83;37.52;99113.00;4860643;29;20054;-70
2022/05/21 02:28:12;;;;;;;4.82;2.47;;;;;;;9.83;37.06;99113.78;4860643;29;20058;-70
2022/05/21 02:30:41;;;;;;;9.40;2.40;;;;;;;9.88;37.60;99127.50;4860541;29;20053;-71
2022/05/21 02:33:08;;;;;;;9.73;2.10;;;;;;;9.91;37.07;99112.09;4860171;29;20205;-70
2022/05/21 02:35:35;;;;;;;6.53;2.58;;;;;;;9.97;37.24;99119.09;4860482;29;20076;-70
2022/05/21 02:40:48;;;;;;;5.80;2.65;;;;;;;10.00;37.36;99113.66;4860177;29;20057;-71
2022/05/21 02:43:15;;;;;;;5.18;2.50;;;;;;;9.99;36.97;99114.84;4860775;29;20084;-71
2022/05/21 02:45:42;;;;;;;5.15;2.20;;;;;;;10.03;36.93;99112.16;4860415;29;20513;-70
2022/05/21 02:48:09;;;;;;;7.53;2.83;;;;;;;10.04;37.15;99108.25;4860619;29;20094;-70
2022/05/21 02:50:36;;;;;;;5.82;2.30;;;;;;;10.02;37.42;99111.38;4868501;29;20049;-72
2022/05/21 02:53:06;;;;;;;5.00;2.38;;;;;;;10.07;37.16;99110.38;4878840;29;20148;-71
2022/05/21 02:55:34;;;;;;;9.73;2.97;;;;;;;10.07;37.95;99122.31;4878865;29;20049;-69
2022/05/21 02:58:01;;;;;;;5.72;3.00;;;;;;;10.05;37.87;99107.09;4878873;29;20393;-70
2022/05/21 03:00:30;;;;;;;8.35;2.88;;;;;;;10.04;37.62;99111.81;4879034;29;20057;-70
2022/05/21 03:02:57;;;;;;;12.98;3.63;;;;;;;10.01;37.60;99115.28;4879169;29;20061;-70
2022/05/21 03:05:26;;;;;;;13.93;4.05;;;;;;;9.98;37.66;99115.19;4878704;29;20568;-70
2022/05/21 03:07:53;;;;;;;11.93;3.90;;;;;;;9.94;37.91;99114.19;4877562;29;20528;-70
2022/05/21 03:10:27;;;;;;;24.45;4.18;;;;;;;9.93;38.29;99104.25;4879401;29;20502;-70
2022/05/21 03:12:58;;;;;;;13.38;4.60;;;;;;;9.92;38.28;99111.75;4882539;29;20120;-70
2022/05/21 03:15:38;;;;;;;20.75;4.88;;;;;;;9.96;38.54;99109.13;4882369;29;20049;-70
2022/05/21 03:18:08;;;;;;;16.70;4.65;;;;;;;9.87;38.74;99102.84;4882104;29;20109;-70
2022/05/21 03:20:36;;;;;;;;;;;;;;;9.79;38.72;99098.16;4881797;29;20056;-70
2022/05/21 03:23:03;;;;;;;12.65;4.43;;;;;;;9.79;38.17;99100.91;4881897;29;19928;-72
2022/05/21 03:25:30;;;;;;;8.43;4.13;;;;;;;9.80;38.57;99102.56;4882469;29;20049;-70
2022/05/21 03:27:58;;;;;;;15.65;4.00;;;;;;;9.88;38.63;99098.88;4880824;29;20088;-70
2022/05/21 03:30:28;;;;;;;8.30;4.00;;;;;;;9.99;38.35;99091.78;4882050;29;20127;-72
2022/05/21 03:32:55;;;;;;;14.98;3.72;;;;;;;10.13;38.22;99095.13;4882046;29;20084;-71
2022/05/21 03:35:23;;;;;;;10.88;3.65;;;;;;;10.31;38.31;99085.47;4882084;29;20101;-71
2022/05/21 03:37:51;;;;;;;13.75;5.13;;;;;;;10.36;38.09;99086.06;4881294;29;20063;-71
2022/05/21 03:40:26;;;;;;;12.05;4.13;;;;;;;10.30;37.31;99094.97;4882194;29;20113;-71
2022/05/21 03:42:52;;;;;;;9.70;4.00;;;;;;;10.36;37.56;99093.63;4881968;29;20413;-71
2022/05/21 03:45:20;;;;;;;6.20;3.55;;;;;;;10.41;37.37;99085.03;4881792;29;20089;-71
2022/05/21 03:47:48;;;;;;;9.75;3.22;;;;;;;10.49;37.23;99092.50;4881931;29;20053;-71
2022/05/21 03:50:19;;;;;;;8.60;3.10;;;;;;;10.49;37.24;99092.50;4881739;29;20053;-71
2022/05/21 03:52:46;;;;;;;6.50;2.80;;;;;;;10.54;37.37;99089.50;4881815;29;20056;-72
2022/05/21 03:55:13;;;;;;;7.63;3.20;;;;;;;10.65;36.88;99085.09;4881609;29;20048;-70
2022/05/21 03:57:39;;;;;;;7.22;3.13;;;;;;;10.75;36.64;99079.91;4881380;29;20064;-69
2022/05/21 04:00:12;;;;;;;9.10;3.40;;;;;;;10.89;37.23;99087.94;4881565;29;20132;-69
2022/05/21 04:02:39;;;;;;;7.47;3.35;;;;;;;10.95;36.12;99089.34;4881644;29;20615;-71
2022/05/21 04:05:08;;;;;;;9.70;3.80;;;;;;;10.99;35.55;99091.06;4881650;29;20049;-69
2022/05/21 04:07:36;;;;;;;12.45;3.78;;;;;;;11.05;35.81;99083.34;4881610;29;20116;-70
2022/05/21 04:10:04;;;;;;;8.93;4.25;;;;;;;11.10;35.79;99072.78;4881572;29;20143;-69
2022/05/21 04:12:31;;;;;;;14.07;3.40;;;;;;;11.12;36.01;99083.56;4880437;29;20075;-69
2022/05/21 04:14:59;;;;;;;11.85;3.72;;;;;;;11.23;35.98;99079.16;4881113;29;20117;-69
2022/05/21 04:17:26;;;;;;;9.60;3.45;;;;;;;11.26;35.65;99078.47;4881011;29;20052;-69
2022/05/21 04:19:55;;;;;;;14.15;3.90;;;;;;;11.41;35.87;99074.97;4881009;29;20080;-69
2022/05/21 04:22:22;;;;;;;12.95;3.75;;;;;;;11.53;35.35;99071.34;4880150;29;20045;-70
2022/05/21 04:24:48;;;;;;;7.78;3.65;;;;;;;11.75;35.17;99082.03;4881330;29;20045;-70
2022/05/21 04:27:15;;;;;;;11.35;3.95;;;;;;;11.84;35.24;99075.16;4880965;29;20543;-70
2022/05/21 04:29:42;;;;;;;7.00;3.17;;;;;;;12.01;34.80;99080.47;4881455;29;20112;-71
2022/05/21 04:32:09;;;;;;;10.25;3.92;;;;;;;12.15;34.76;99077.28;4880927;29;20071;-70
2022/05/21 04:34:37;;;;;;;5.82;3.33;;;;;;;12.32;34.82;99077.78;4880764;29;20427;-71
2022/05/21 04:37:04;;;;;;;10.82;4.90;;;;;;;12.51;34.13;99069.56;4881168;29;20532;-71
2022/05/21 04:39:30;;;;;;;11.88;4.18;;;;;;;12.70;34.38;99057.69;4880661;29;20410;-72
2022/05/21 04:42:00;;;;;;;7.78;3.28;;;;;;;12.83;33.67;99060.06;4880715;29;20143;-73
2022/05/21 04:44:31;;;;;;;9.85;3.33;;;;;;;12.82;33.44;99065.97;4881252;29;20045;-70
2022/05/21 04:46:58;;;;;;;11.88;4.13;;;;;;;12.90;33.52;99057.47;4880711;29;20053;-71
2022/05/21 04:49:26;;;;;;;12.02;3.20;;;;;;;13.11;32.63;99059.22;4880766;29;20486;-71
2022/05/21 04:51:53;;;;;;;7.60;3.03;;;;;;;13.57;31.97;99058.31;4880558;29;20053;-71
2022/05/21 04:54:20;;;;;;;5.65;2.85;;;;;;;13.84;31.41;99057.34;4880603;29;20079;-71
2022/05/21 04:56:47;;;;;;;6.93;3.58;;;;;;;13.86;31.24;99050.19;4880669;29;20057;-72
2022/05/21 04:59:14;;;;;;;5.43;2.83;;;;;;;13.75;31.54;99051.16;4880612;29;20207;-72
2022/05/21 05:01:42;;;;;;;14.20;3.90;;;;;;;13.85;31.65;99056.16;4880543;29;20053;-72
2022/05/21 05:04:09;;;;;;;9.45;3.28;;;;;;;13.96;31.71;99051.63;4880906;29;20045;-73
2022/05/21 05:06:38;;;;;;;14.35;2.88;;;;;;;14.11;31.01;99047.94;4880444;29;20084;-70
2022/05/21 05:09:07;;;;;;;7.03;3.38;;;;;;;14.23;30.58;99039.41;4879259;29;20397;-70
2022/05/21 05:11:35;;;;;;;10.18;3.35;;;;;;;14.22;30.77;99040.59;4880263;29;20472;-71
2022/05/21 05:14:02;;;;;;;4.75;2.75;;;;;;;14.19;30.88;99052.50;4863717;29;20060;-71
2022/05/21 05:16:29;;;;;;;5.65;2.22;;;;;;;14.19;30.48;99039.34;4880267;29;20063;-71
2022/05/21 05:18:56;;;;;;;10.15;2.72;;;;;;;14.25;30.20;99039.88;4880276;29;20059;-71
2022/05/21 05:21:23;;;;;;;4.45;2.03;;;;;;;14.50;29.67;99027.19;4876782;29;20059;-70
2022/05/21 05:23:50;;;;;;;6.43;2.13;;;;;;;14.87;29.49;99027.47;4861582;29;20054;-71
2022/05/21 05:26:17;;;;;;;6.15;2.40;;;;;;;15.24;29.16;99017.28;4861497;29;20140;-71
2022/05/21 05:28:45;;;;;;;10.15;2.53;;;;;;;15.51;28.89;99028.16;4861557;29;20057;-71
2022/05/21 05:31:12;;;;;;;10.23;3.20;;;;;;;15.67;28.90;99012.00;4861466;29;20064;-71
2022/05/21 05:33:39;;;;;;;5.15;2.30;;;;;;;15.83;28.62;99018.22;4861375;29;20069;-73
2022/05/21 05:36:07;;;;;;;3.65;2.00;;;;;;;16.04;28.33;99010.06;4861226;29;20056;-72
2022/05/21 05:38:34;;;;;;;5.03;2.33;;;;;;;16.15;28.09;99011.03;4861162;29;20063;-71
2022/05/21 05:41:01;;;;;;;5.80;2.67;;;;;;;16.20;27.33;98998.66;4861207;29;20406;-71
2022/05/21 05:43:29;;;;;;;6.95;3.30;;;;;;;16.48;27.14;99000.97;4861580;29;20466;-70
2022/05/21 05:45:58;;;;;;;6.32;2.60;;;;;;;16.59;26.98;99001.91;4860024;29;20053;-72
2022/05/21 05:48:27;;;;;;;4.78;2.30;;;;;;;16.96;26.79;98997.06;4859770;29;20058;-72
2022/05/21 05:50:55;;;;;;;4.07;1.80;;;;;;;17.17;26.39;98994.44;4861189;29;20061;-72
2022/05/21 05:53:24;;;;;;;7.50;2.30;;;;;;;17.24;26.05;98988.84;4861425;29;20057;-73
2022/05/21 05:55:51;;;;;;;14.02;2.33;;;;;;;17.50;25.50;98989.47;4860895;29;20049;-73
2022/05/21 06:01:06;;;;;;;5.72;1.95;;;;;;;18.35;23.09;98979.44;4867210;29;20160;-72
2022/05/21 06:03:34;;;;;;;3.17;1.60;;;;;;;19.74;21.48;98972.28;4879596;29;20140;-73
2022/05/21 06:06:01;;;;;;;4.80;1.80;;;;;;;20.85;20.36;98969.34;4879225;29;20053;-74
2022/05/21 06:08:28;;;;;;;6.13;2.08;;;;;;;21.50;20.00;98965.59;4879758;29;20127;-75
2022/05/21 06:10:55;;;;;;;3.53;2.10;;;;;;;21.75;19.49;98966.16;4879577;29;20049;-73
2022/05/21 06:13:22;;;;;;;3.38;1.65;;;;;;;20.89;20.10;98958.00;4879140;29;20063;-73
2022/05/21 06:15:50;;;;;;;5.05;2.25;;;;;;;20.05;20.89;98969.75;4879498;29;20059;-72
2022/05/21 06:18:20;;;;;;;7.47;2.00;;;;;;;19.95;21.20;98960.91;4879590;29;20064;-73
2022/05/21 06:20:48;;;;;;;5.10;2.10;;;;;;;20.17;20.83;98955.22;4877765;29;20052;-72
2022/05/21 06:23:16;;;;;;;4.15;2.00;;;;;;;20.12;20.70;98953.59;4862598;29;20100;-72
2022/05/21 06:25:43;;;;;;;4.32;1.50;;;;;;;20.01;20.76;98946.38;4879104;29;20068;-74
2022/05/21 06:28:10;;;;;;;5.70;1.85;;;;;;;19.65;20.95;98949.31;4878968;29;20053;-73
2022/05/21 06:30:40;;;;;;;5.35;1.58;;;;;;;19.58;20.95;98945.72;4879123;29;20135;-73
2022/05/21 06:33:22;;;;;;;13.13;1.70;;;;;;;20.17;19.77;98938.25;4879393;29;20056;-75
2022/05/21 06:36:01;;;;;;;4.25;1.50;;;;;;;20.92;19.20;98941.00;4879279;29;20045;-73
2022/05/21 06:38:27;;;;;;;5.70;1.75;;;;;;;20.66;19.72;98940.81;4879113;29;20061;-74
2022/05/21 06:40:54;;;;;;;4.57;1.40;;;;;;;20.08;19.89;98937.88;4878769;29;20059;-75
2022/05/21 06:43:22;;;;;;;3.05;1.45;;;;;;;19.38;20.57;98939.72;4879055;29;20116;-75
2022/05/21 06:45:49;;;;;;;4.15;1.80;;;;;;;18.98;20.90;98940.09;4878517;29;20041;-75
2022/05/21 06:48:16;;;;;;;5.95;1.50;;;;;;;18.46;21.31;98932.41;4879019;29;20513;-73
2022/05/21 06:50:43;;;;;;;6.03;1.42;;;;;;;20.16;19.97;98926.16;4879174;29;20053;-75
2022/05/21 06:53:10;;;;;;;5.25;1.40;;;;;;;24.77;16.49;98921.28;4879284;29;20470;-74
2022/05/21 06:55:38;;;;;;;5.28;1.38;;;;;;;30.03;12.25;98920.31;4878762;29;20405;-74
2022/05/21 06:58:06;;;;;;;4.05;1.55;;;;;;;33.86;10.04;98916.38;4879288;29;20056;-74
2022/05/21 07:00:34;;;;;;;4.45;1.88;;;;;;;35.75;8.69;98908.94;4878651;29;20101;-74
2022/05/21 07:03:02;;;;;;;6.43;1.60;;;;;;;37.70;8.07;98912.44;4879151;29;20064;-74
2022/05/21 07:08:24;;;;;;;3.10;1.50;;;;;;;41.31;6.27;98895.25;4878491;29;20067;-74
2022/05/21 07:10:52;;;;;;;3.38;1.60;;;;;;;42.18;5.93;98894.88;4878512;29;20053;-75
2022/05/21 07:13:21;;;;;;;2.50;1.48;;;;;;;42.63;5.50;98883.78;4878633;29;20140;-74
2022/05/21 07:15:49;;;;;;;3.60;1.50;;;;;;;43.51;5.22;98894.63;4878657;29;20045;-73
2022/05/21 07:18:18;;;;;;;3.78;1.48;;;;;;;42.86;4.94;98893.59;4878791;29;20482;-73
2022/05/21 07:20:46;;;;;;;3.15;1.75;;;;;;;42.40;4.92;98885.63;4878619;29;20088;-74
2022/05/21 07:23:13;;;;;;;;;;;;;;;42.59;5.36;98885.47;4878884;29;20065;-73
2022/05/21 07:25:40;;;;;;;10.13;2.10;;;;;;;43.93;4.65;98878.50;4878554;29;19928;-74
2022/05/21 07:28:09;;;;;;;7.30;2.30;;;;;;;45.41;4.28;98887.63;4878695;29;20041;-75
2022/05/21 07:30:37;;;;;;;3.75;1.60;;;;;;;45.00;4.31;98887.97;4878813;29;20056;-75
2022/05/21 07:33:08;;;;;;;4.82;1.90;;;;;;;45.35;3.89;98869.38;4878414;29;20525;-73
2022/05/21 07:35:37;;;;;;;3.97;1.70;;;;;;;46.34;3.46;98871.56;4878598;29;20045;-74
2022/05/21 07:38:09;;;;;;;3.58;1.75;;;;;;;46.63;3.20;98871.22;4877032;29;20140;-72
2022/05/21 07:40:38;;;;;;;2.72;1.60;;;;;;;48.45;2.66;98863.88;4878243;29;20084;-73
2022/05/21 07:43:13;;;;;;;5.22;2.20;;;;;;;48.75;2.52;98866.44;4878650;29;20080;-73
2022/05/21 07:45:42;;;;;;;6.15;2.60;;;;;;;47.08;3.04;98865.06;4878272;29;20071;-74
2022/05/21 07:48:12;;;;;;;7.97;2.40;;;;;;;48.22;2.64;98872.25;4878352;29;20049;-75
2022/05/21 07:50:41;;;;;;;4.20;2.10;;;;;;;48.89;2.16;98863.88;4876646;29;20428;-76
2022/05/21 07:53:10;;;;;;;4.78;1.83;;;;;;;48.57;2.25;98858.22;4878510;29;20049;-75
2022/05/21 07:55:38;;;;;;;3.80;1.75;;;;;;;44.23;3.74;98858.13;4878135;29;20564;-74
2022/05/21 07:58:05;;;;;;;3.88;2.30;;;;;;;43.85;4.05;98851.25;4880396;29;20045;-75
2022/05/21 08:00:33;;;;;;;6.10;1.92;;;;;;;44.47;3.68;98849.63;4880321;29;20124;-74
2022/05/21 08:03:00;;;;;;;5.18;1.83;;;;;;;43.80;3.97;98838.34;4882088;29;20501;-75
2022/05/21 08:05:27;;;;;;;9.15;2.72;;;;;;;46.22;2.74;98835.13;4881642;29;20045;-75
2022/05/21 08:07:55;;;;;;;6.63;1.80;;;;;;;45.44;3.25;98830.59;4881623;29;20049;-75
2022/05/21 08:10:23;;;;;;;2.78;1.83;;;;;;;43.99;3.83;98835.16;4881658;29;20092;-76
2022/05/21 08:12:51;;;;;;;8.45;2.00;;;;;;;44.28;3.67;98828.63;4881810;29;20084;-76
2022/05/21 08:15:20;;;;;;;7.55;1.55;;;;;;;46.16;3.47;98828.69;4895406;29;20069;-75
2022/05/21 08:17:47;;;;;;;3.03;1.75;;;;;;;47.94;2.45;98828.50;4881241;29;20049;-76
2022/05/21 08:20:16;;;;;;;4.53;2.10;;;;;;;48.98;2.29;98831.44;4881089;29;20057;-74
2022/05/21 08:28:16;;;;;;;4.45;2.00;;;;;;;41.78;4.58;98793.16;4862913;29;20081;-76
2022/05/21 08:30:46;;;;;;;4.10;1.98;;;;;;;44.80;3.58;98797.84;4862686;29;20087;-76
2022/05/21 08:33:16;;;;;;;9.10;2.03;;;;;;;46.97;2.68;98800.75;4862335;29;20073;-76
2022/05/21 08:35:43;;;;;;;3.58;2.00;;;;;;;48.13;2.40;98787.38;4876362;29;20056;-74
2022/05/21 08:38:12;;;;;;;3.75;2.30;;;;;;;48.41;1.98;98795.66;4861537;29;20053;-75
2022/05/21 08:40:49;;;;;;;3.85;2.13;;;;;;;49.00;2.44;98802.06;4863422;29;20533;-75
2022/05/21 08:43:21;;;;;;;11.70;2.50;;;;;;;49.05;1.79;98795.09;4880983;29;20424;-76
2022/05/21 08:46:05;;;;;;;5.22;2.20;;;;;;;49.51;1.61;98809.84;4880813;29;20101;-76
2022/05/21 08:48:33;;;;;;;6.45;2.42;;;;;;;49.98;1.76;98797.31;4880904;29;20481;-75
2022/05/21 08:51:07;;;;;;;4.43;2.33;;;;;;;50.65;1.45;98803.16;4864000;29;20060;-77
2022/05/21 08:53:44;;;;;;;3.05;2.25;;;;;;;50.48;1.45;98797.41;4880767;29;20061;-76
2022/05/21 08:56:12;;;;;;;4.33;2.60;;;;;;;49.26;1.51;98777.56;4880276;29;20065;-76
2022/05/21 08:58:50;;;;;;;4.18;2.30;;;;;;;48.84;2.12;98771.19;4880758;29;20080;-75
2022/05/21 09:01:23;;;;;;;7.45;2.40;;;;;;;49.96;1.80;98767.53;4880481;29;20046;-76
2022/05/21 09:03:54;;;;;;;4.70;2.40;;;;;;;50.68;1.34;98757.47;4880489;29;20573;-75
2022/05/21 09:06:40;;;;;;;7.30;2.35;;;;;;;50.84;1.40;98758.63;4880386;29;20156;-75
2022/05/21 09:09:18;;;;;;;6.30;2.35;;;;;;;51.20;1.21;98755.34;4880204;29;20420;-74
2022/05/21 09:11:53;;;;;;;3.85;2.70;;;;;;;50.62;1.09;98754.03;4880072;29;20083;-74
2022/05/21 09:14:43;;;;;;;3.72;2.20;;;;;;;50.47;1.35;98755.19;4880128;29;20060;-73
2022/05/21 09:17:16;;;;;;;6.72;2.60;;;;;;;47.77;1.98;98748.88;4880390;29;20053;-75
2022/05/21 09:19:49;;;;;;;5.93;2.47;;;;;;;46.93;2.13;98748.13;4878612;29;20080;-74
2022/05/21 09:22:19;;;;;;;5.18;2.20;;;;;;;47.96;2.41;98749.03;4876392;29;20071;-74
2022/05/21 09:25:18;;;;;;;5.82;2.60;;;;;;;50.01;1.49;98739.84;4861337;29;20082;-75
2022/05/21 09:27:47;;;;;;;9.52;2.40;;;;;;;51.16;1.43;98745.38;4861443;29;20157;-75
2022/05/21 09:30:16;;;;;;;5.15;2.40;;;;;;;51.32;1.14;98741.41;4861061;29;20061;-76
2022/05/21 09:32:48;;;;;;;5.57;2.03;;;;;;;49.87;1.67;98732.03;4859996;29;20058;-73
2022/05/21 09:35:18;;;;;;;9.07;1.98;;;;;;;43.13;3.27;98724.44;4861480;29;20480;-75
2022/05/21 09:37:46;;;;;;;6.07;2.10;;;;;;;37.86;5.65;98722.81;4861268;29;20053;-74
2022/05/21 09:40:35;;;;;;;6.22;1.83;;;;;;;33.77;7.52;98717.41;4861539;29;20054;-74
2022/05/21 09:46:26;;;;;;;7.85;2.13;;;;;;;28.09;10.35;98706.44;4861008;29;20468;-75
2022/05/21 09:49:11;;;;;;;11.82;2.78;;;;;;;26.61;11.23;98696.91;4861015;29;20513;-75
2022/05/21 09:51:44;;;;;;;7.10;2.20;;;;;;;25.62;12.13;98709.13;4859766;29;20151;-75
2022/05/21 09:54:33;;;;;;;13.27;4.85;;;;;;;24.95;12.82;98705.34;4860839;29;20050;-74
2022/05/21 09:57:00;;;;;;;4.18;1.92;;;;;;;23.86;13.58;98695.97;4859299;29;20141;-74
2022/05/21 09:59:33;;;;;;;3.40;1.65;;;;;;;23.05;14.34;98701.34;4860781;29;20077;-74
2022/05/21 10:02:15;;;;;;;7.47;1.80;;;;;;;22.46;14.91;98699.63;4875228;29;20057;-74
2022/05/21 10:04:51;;;;;;;5.22;1.90;;;;;;;21.86;15.24;98686.50;4879497;29;20076;-74
2022/05/21 10:10:58;;;;;;;5.30;1.80;;;;;;;21.42;15.92;98681.03;4878960;29;20057;-74
2022/05/21 10:13:43;;;;;;;5.47;2.45;;;;;;;21.42;15.74;98675.38;4879086;29;20505;-75
2022/05/21 10:16:28;;;;;;;3.30;1.80;;;;;;;20.99;15.99;98671.53;4878976;29;20121;-75
2022/05/21 10:19:04;;;;;;;3.88;1.95;;;;;;;20.85;16.14;98663.19;4878120;29;20060;-74
2022/05/21 10:21:37;;;;;;;4.85;1.95;;;;;;;20.66;16.54;98666.66;4878501;29;20052;-75
2022/05/21 10:24:26;;;;;;;4.95;1.60;;;;;;;20.64;16.74;98657.78;4879588;29;20063;-74
2022/05/21 10:27:03;;;;;;;6.18;1.73;;;;;;;20.62;16.92;98654.56;4879192;29;20045;-74
2022/05/21 10:30:06;;;;;;;3.78;2.17;;;;;;;20.33;17.12;98651.22;4879457;29;20052;-74
2022/05/21 10:33:04;;;;;;;7.55;2.00;;;;;;;19.84;18.25;98649.63;4878915;29;20101;-74
2022/05/21 10:35:55;;;;;;;15.30;3.95;;;;;;;19.59;18.50;98649.03;4878996;29;20045;-74
2022/05/21 10:39:16;;;;;;;8.60;2.08;;;;;;;19.59;18.66;98654.69;4878864;29;20063;-74
2022/05/21 10:42:00;;;;;;;10.45;2.25;;;;;;;19.58;18.61;98653.06;4867564;29;20065;-74
2022/05/21 10:44:37;;;;;;;5.55;1.88;;;;;;;19.34;19.22;98647.59;4878985;29;20045;-74
2022/05/21 10:47:15;;;;;;;4.88;1.90;;;;;;;19.15;19.08;98651.69;4878758;29;20056;-74
2022/05/21 10:49:56;;;;;;;5.32;1.75;;;;;;;19.16;19.15;98653.28;4878632;29;20052;-74
2022/05/21 10:52:53;;;;;;;5.80;1.95;;;;;;;18.86;19.20;98644.56;4878801;29;20052;-74
2022/05/21 10:56:02;;;;;;;5.72;2.60;;;;;;;18.66;19.74;98634.22;4875054;29;20121;-74
2022/05/21 10:58:59;;;;;;;5.88;2.13;;;;;;;18.65;19.94;98633.38;4870265;29;20112;-73
2022/05/21 11:01:37;;;;;;;4.03;1.90;;;;;;;18.83;20.01;98645.41;4878404;29;20057;-74
2022/05/21 11:04:46;;;;;;;7.05;2.08;;;;;;;18.91;19.76;98638.53;4879071;29;20060;-73
2022/05/21 11:07:27;;;;;;;3.75;2.00;;;;;;;18.75;19.87;98631.75;4878450;29;20045;-73
2022/05/21 11:10:11;;;;;;;5.38;1.83;;;;;;;18.55;20.14;98627.78;4879008;29;20137;-74
2022/05/21 11:12:51;;;;;;;2.97;1.55;;;;;;;18.44;19.97;98624.22;4879253;29;20147;-73
2022/05/21 11:16:12;;;;;;;3.10;2.00;;;;;;;18.63;19.92;98618.13;4877932;29;20060;-73
2022/05/21 11:19:16;;;;;;;5.63;2.25;;;;;;;18.75;19.90;98612.84;4821489;29;20059;-73
2022/05/21 11:22:19;;;;;;;2.95;1.58;;;;;;;18.44;20.18;98627.03;4812433;29;20125;-73
2022/05/21 11:25:22;;;;;;;2.75;1.77;;;;;;;18.26;20.19;98609.38;4806095;29;20054;-73
2022/05/21 11:27:59;;;;;;;4.10;1.95;;;;;;;18.22;20.28;98609.38;4819007;29;20058;-73
2022/05/21 11:30:26;;;;;;;5.30;1.90;;;;;;;18.33;20.53;98607.34;4821667;29;20062;-73
2022/05/21 11:38:46;;;;;;;3.80;1.90;;;;;;;18.37;20.09;98599.69;4824610;29;20146;-73
2022/05/21 11:41:25;;;;;;;3.10;1.65;;;;;;;18.34;19.98;98594.84;4824215;29;20076;-73
2022/05/21 11:47:21;;;;;;;4.47;2.38;;;;;;;18.32;19.92;98580.38;4809192;29;20084;-73
2022/05/21 11:49:56;;;;;;;10.03;1.83;;;;;;;18.25;20.24;98571.94;4844925;29;20521;-73
2022/05/21 11:52:26;;;;;;;2.35;1.63;;;;;;;18.38;20.17;98573.13;4881468;29;20061;-75
2022/05/21 11:54:53;;;;;;;2.88;1.92;;;;;;;18.48;19.94;98585.59;4881753;29;20049;-73
2022/05/21 11:57:30;;;;;;;4.80;1.88;;;;;;;18.48;19.99;98568.69;4881590;29;20081;-73
2022/05/21 11:59:57;;;;;;;4.68;2.00;;;;;;;18.47;20.18;98564.28;4881746;29;20049;-73
2022/05/21 12:02:29;;;;;;;4.28;2.15;;;;;;;18.39;20.09;98569.13;4881361;29;20084;-68
2022/05/21 12:05:05;;;;;;;4.50;1.90;;;;;;;18.26;20.31;98570.72;4881625;29;20059;-68
2022/05/21 12:07:41;;;;;;;2.75;1.67;;;;;;;18.08;20.36;98565.16;4881470;29;20053;-66
2022/05/21 12:10:14;;;;;;;3.85;1.73;;;;;;;18.19;20.49;98559.50;4881414;29;20088;-68
2022/05/21 12:13:06;;;;;;;2.45;1.50;;;;;;;18.34;20.29;98561.06;4881557;29;20147;-66
2022/05/21 12:15:49;;;;;;;4.38;1.58;;;;;;;18.33;20.35;98559.47;4881109;29;20052;-68
2022/05/21 12:18:28;;;;;;;4.45;1.65;;;;;;;18.35;20.24;98550.63;4881604;29;20091;-68
2022/05/21 12:20:55;;;;;;;4.32;1.60;;;;;;;18.33;20.32;98548.19;4881214;29;20056;-68
2022/05/21 12:23:40;;;;;;;3.50;1.75;;;;;;;18.37;20.19;98546.19;4862694;29;20061;-70
2022/05/21 12:26:21;;;;;;;3.35;2.22;;;;;;;18.16;20.22;98538.59;4862602;29;20132;-66
2022/05/21 12:29:23;;;;;;;6.53;1.60;;;;;;;18.17;20.30;98539.38;4862779;29;20057;-66
2022/05/21 12:31:59;;;;;;;3.80;2.15;;;;;;;18.13;20.40;98533.78;4862190;29;20053;-66
2022/05/21 12:34:44;;;;;;;7.35;1.70;;;;;;;18.11;21.08;98536.19;4862745;29;20065;-66